Time;durP1;ratioP1;P1;durP2;ratioP2;P2;SDS_P1;SDS_P2;PMS_P1;PMS_P2;Temp;Humidity;BMP_temperature;BMP_pressure;BME280_temperature;BME280_humidity;BME280_pressure;Samples;Min_cycle;Max_cycle;Signal;HPM_P1;HPM_P2
2021/07/19 00:03:49;;;;;;;;;;;;;;;28.24;40.49;97590.00;5026627;28;1552;-51
2021/07/19 00:06:14;;;;;;;;;;;;;;;28.38;39.95;97586.16;5030581;28;1350;-51
2021/07/19 00:08:40;;;;;;;;;;;;;;;28.33;40.09;97591.03;5029673;28;1275;-52
2021/07/19 00:11:05;;;;;;;;;;;;;;;28.48;39.83;97587.00;5028606;28;1560;-50
2021/07/19 00:13:30;;;;;;;;;;;;;;;28.26;40.25;97582.75;5012073;28;1295;-51
2021/07/19 00:15:55;;;;;;;;;;;;;;;28.40;39.88;97583.38;5028962;28;1333;-51
2021/07/19 00:18:21;;;;;;;;;;;;;;;28.31;40.07;97579.72;5029645;28;1654;-51
2021/07/19 00:20:47;;;;;;;;;;;;;;;28.30;40.21;97586.84;5028048;28;1965;-51
2021/07/19 00:23:12;;;;;;;;;;;;;;;28.37;39.92;97592.44;5030026;28;1105;-51
2021/07/19 00:25:37;;;;;;;;;;;;;;;28.37;40.07;97592.44;5027358;28;1746;-51
2021/07/19 00:28:03;;;;;;;;;;;;;;;28.28;40.12;97585.25;5026550;28;1595;-51
2021/07/19 00:30:28;;;;;;;;;;;;;;;28.52;39.49;97588.41;5029092;28;1316;-51
2021/07/19 00:32:53;;;;;;;;;;;;;;;28.26;40.19;97589.88;5027623;28;1762;-50
2021/07/19 00:35:19;;;;;;;;;;;;;;;28.38;40.01;97585.31;5029907;28;1264;-50
2021/07/19 00:37:44;;;;;;;;;;;;;;;28.27;40.28;97584.41;5028080;28;1619;-52
2021/07/19 00:40:10;;;;;;;;;;;;;;;28.45;39.97;97595.25;5027194;28;1906;-49
2021/07/19 00:42:37;;;;;;;;;;;;;;;28.30;40.13;97580.72;5028765;28;1362;-51
2021/07/19 00:45:07;;;;;;;;;;;;;;;28.41;40.18;97585.88;5028972;28;1234;-51
2021/07/19 00:47:32;;;;;;;;;;;;;;;28.32;40.23;97586.72;5027072;28;1611;-51
2021/07/19 00:49:58;;;;;;;;;;;;;;;28.23;40.35;97590.16;5011466;28;1328;-52
2021/07/19 00:52:23;;;;;;;;;;;;;;;28.30;40.50;97586.84;5029438;28;1168;-51
2021/07/19 00:54:48;;;;;;;;;;;;;;;28.29;40.25;97585.19;5028129;28;1630;-49
2021/07/19 00:57:13;;;;;;;;;;;;;;;28.31;40.44;97583.22;5011567;28;1484;-51
2021/07/19 00:59:38;;;;;;;;;;;;;;;28.30;40.40;97580.72;5006801;28;1894;-51
2021/07/19 01:02:04;;;;;;;;;;;;;;;28.42;39.67;97584.91;5005754;28;1478;-51
2021/07/19 01:04:30;;;;;;;;;;;;;;;28.35;40.00;97586.41;5006698;28;1626;-49
2021/07/19 01:06:56;;;;;;;;;;;;;;;28.28;40.22;97575.50;5026320;28;1357;-51
2021/07/19 01:09:21;;;;;;;;;;;;;;;28.28;40.12;97583.47;5028890;28;1615;-50
2021/07/19 01:11:46;;;;;;;;;;;;;;;28.27;40.41;97587.06;5013962;28;1413;-51
2021/07/19 01:14:12;;;;;;;;;;;;;;;28.28;40.25;97588.78;5015349;28;1177;-50
2021/07/19 01:16:37;;;;;;;;;;;;;;;28.16;40.52;97592.50;5014051;28;1291;-52
2021/07/19 01:19:02;;;;;;;;;;;;;;;28.23;40.53;97590.16;5032523;28;1914;-51
2021/07/19 01:21:46;;;;;;;;;;;;;;;28.30;39.98;97594.81;5012262;28;1567;-52
2021/07/19 01:24:15;;;;;;;;;;;;;;;28.32;40.07;97592.84;5033511;28;1169;-49
2021/07/19 01:26:45;;;;;;;;;;;;;;;28.38;40.02;97588.81;5012883;28;1737;-52
2021/07/19 01:29:12;;;;;;;;;;;;;;;28.27;40.16;97591.53;5014464;28;1505;-52
2021/07/19 01:31:44;;;;;;;;;;;;;;;28.43;39.98;97597.19;5014441;28;1434;-49
2021/07/19 01:34:11;;;;;;;;;;;;;;;28.13;40.42;97594.59;5031010;28;1548;-51
2021/07/19 01:36:42;;;;;;;;;;;;;;;28.17;40.64;97588.88;5015646;28;1275;-51
2021/07/19 01:39:08;;;;;;;;;;;;;;;28.49;39.86;97596.63;5030882;28;1901;-50
2021/07/19 01:41:34;;;;;;;;;;;;;;;28.35;40.18;97607.63;5031474;28;1829;-51
2021/07/19 01:43:59;;;;;;;;;;;;;;;28.28;40.25;97593.22;5031206;28;1290;-51
2021/07/19 01:46:24;;;;;;;;;;;;;;;28.37;40.04;97589.78;5014532;28;1236;-51
2021/07/19 01:48:49;;;;;;;;;;;;;;;28.33;39.91;97599.81;5030282;28;1628;-51
2021/07/19 01:51:14;;;;;;;;;;;;;;;28.31;39.93;97590.34;5032880;28;1317;-51
2021/07/19 01:53:41;;;;;;;;;;;;;;;28.23;40.09;97595.47;5014469;28;1180;-49
2021/07/19 01:56:06;;;;;;;;;;;;;;;28.33;40.06;97593.69;5014990;28;1778;-49
2021/07/19 01:58:31;;;;;;;;;;;;;;;28.14;40.73;97593.63;4998223;28;2150;-50
2021/07/19 02:00:56;;;;;;;;;;;;;;;28.29;40.24;97600.22;5014650;28;1966;-51
2021/07/19 02:03:22;;;;;;;;;;;;;;;28.35;40.20;97592.56;5031366;28;1568;-50
2021/07/19 02:05:48;;;;;;;;;;;;;;;28.32;40.43;97602.63;5012528;28;1535;-51
2021/07/19 02:08:14;;;;;;;;;;;;;;;28.49;39.96;97603.75;5015171;28;1212;-50
2021/07/19 02:10:39;;;;;;;;;;;;;;;28.32;39.99;97592.00;5030596;28;1580;-51
2021/07/19 02:13:05;;;;;;;;;;;;;;;28.35;39.92;97602.34;5010301;28;1512;-51
2021/07/19 02:15:30;;;;;;;;;;;;;;;28.24;40.34;97602.44;5030212;28;1122;-51
2021/07/19 02:17:56;;;;;;;;;;;;;;;28.28;40.06;97598.53;5030868;28;1362;-51
2021/07/19 02:20:22;;;;;;;;;;;;;;;28.32;40.24;97592.84;5032456;28;1958;-52
2021/07/19 02:22:47;;;;;;;;;;;;;;;28.28;40.47;97594.09;5028398;28;1584;-50
2021/07/19 02:25:13;;;;;;;;;;;;;;;28.26;40.38;97592.53;5031033;28;1626;-51
2021/07/19 02:27:39;;;;;;;;;;;;;;;28.20;40.60;97596.56;5030997;28;1235;-51
2021/07/19 02:30:08;;;;;;;;;;;;;;;28.29;40.38;97602.88;5031360;28;1334;-50
2021/07/19 02:32:34;;;;;;;;;;;;;;;28.29;39.90;97597.56;5030585;28;1197;-50
2021/07/19 02:34:59;;;;;;;;;;;;;;;28.32;40.05;97600.81;5013962;28;2140;-52
2021/07/19 02:37:24;;;;;;;;;;;;;;;28.39;40.15;97601.09;5013872;28;1418;-49
2021/07/19 02:39:50;;;;;;;;;;;;;;;28.34;39.80;97592.69;5013559;28;1989;-50
2021/07/19 02:42:15;;;;;;;;;;;;;;;28.33;39.97;97594.53;5011802;28;1519;-51
2021/07/19 02:44:40;;;;;;;;;;;;;;;28.31;39.98;97591.19;5031232;28;1165;-51
2021/07/19 02:47:05;;;;;;;;;;;;;;;28.25;40.32;97602.28;5011765;28;1715;-51
2021/07/19 02:49:30;;;;;;;;;;;;;;;28.32;40.30;97599.97;5013908;28;1622;-50
2021/07/19 02:51:56;;;;;;;;;;;;;;;28.32;40.05;97592.84;5009759;28;1340;-51
2021/07/19 02:54:21;;;;;;;;;;;;;;;28.22;40.30;97601.75;5013873;28;1630;-51
2021/07/19 02:56:46;;;;;;;;;;;;;;;28.38;40.04;97609.19;5012219;28;1146;-50
2021/07/19 02:59:11;;;;;;;;;;;;;;;28.47;39.86;97603.06;5012814;28;1906;-51
2021/07/19 03:01:37;;;;;;;;;;;;;;;28.43;39.93;97599.84;5028105;28;1320;-51
2021/07/19 03:04:02;;;;;;;;;;;;;;;28.23;40.48;97600.75;5012800;28;1733;-51
2021/07/19 03:06:34;;;;;;;;;;;;;;;28.23;40.43;97598.09;5008894;28;1594;-51
2021/07/19 03:09:00;;;;;;;;;;;;;;;28.46;39.86;97596.91;5030650;28;1141;-51
2021/07/19 03:11:25;;;;;;;;;;;;;;;28.31;40.24;97593.81;5012418;28;1631;-51
2021/07/19 03:13:53;;;;;;;;;;;;;;;28.34;39.97;97601.50;5028787;28;1329;-51
2021/07/19 03:16:18;;;;;;;;;;;;;;;28.41;40.12;97601.78;5013074;28;1173;-49
2021/07/19 03:18:43;;;;;;;;;;;;;;;28.46;39.79;97604.03;5011936;28;1579;-51
2021/07/19 03:21:09;;;;;;;;;;;;;;;28.31;40.24;97608.91;5030492;28;1967;-50
2021/07/19 03:23:35;;;;;;;;;;;;;;;28.28;40.01;97606.47;5011626;28;1473;-51
2021/07/19 03:26:00;;;;;;;;;;;;;;;28.41;40.14;97609.75;5013067;28;1575;-50
2021/07/19 03:28:25;;;;;;;;;;;;;;;28.27;40.19;97600.34;5010061;28;1567;-50
2021/07/19 03:30:51;;;;;;;;;;;;;;;28.43;39.81;97599.84;5013012;28;1414;-50
2021/07/19 03:33:16;;;;;;;;;;;;;;;28.26;40.51;97597.81;5010591;28;1702;-50
2021/07/19 03:35:41;;;;;;;;;;;;;;;28.31;40.08;97593.00;5031014;28;1193;-50
2021/07/19 03:38:06;;;;;;;;;;;;;;;28.36;40.01;97594.25;5010809;28;1868;-50
2021/07/19 03:40:31;;;;;;;;;;;;;;;28.55;39.76;97598.75;5012672;28;1918;-50
2021/07/19 03:43:00;;;;;;;;;;;;;;;28.25;40.26;97599.63;5010252;28;1059;-52
2021/07/19 03:45:25;;;;;;;;;;;;;;;28.24;40.13;97594.47;5011905;28;1050;-51
2021/07/19 03:47:50;;;;;;;;;;;;;;;28.34;40.28;97600.66;5012119;28;1615;-49
2021/07/19 03:50:15;;;;;;;;;;;;;;;28.24;40.29;97605.09;5012983;28;1335;-51
2021/07/19 03:52:41;;;;;;;;;;;;;;;28.26;40.21;97603.13;5029736;28;1242;-51
2021/07/19 03:55:09;;;;;;;;;;;;;;;28.31;40.23;97607.09;5029335;28;1801;-51
2021/07/19 03:57:38;;;;;;;;;;;;;;;28.44;40.02;97609.50;5027308;28;1489;-51
2021/07/19 04:00:07;;;;;;;;;;;;;;;28.25;40.21;97602.28;5012884;28;1914;-51
2021/07/19 04:02:34;;;;;;;;;;;;;;;28.33;40.04;97605.13;5011903;28;1209;-51
2021/07/19 04:05:04;;;;;;;;;;;;;;;28.36;39.99;97610.19;5027432;28;1782;-51
2021/07/19 04:07:29;;;;;;;;;;;;;;;28.41;40.14;97607.09;5013425;28;1141;-51
2021/07/19 04:09:54;;;;;;;;;;;;;;;28.20;40.38;97599.22;5027269;28;1643;-50
2021/07/19 04:12:20;;;;;;;;;;;;;;;28.30;40.05;97597.47;5029368;28;1265;-51
2021/07/19 04:14:45;;;;;;;;;;;;;;;28.30;40.21;97599.28;5011698;28;1134;-51
2021/07/19 04:17:10;;;;;;;;;;;;;;;28.33;40.10;97599.81;5011612;28;1335;-50
2021/07/19 04:19:36;;;;;;;;;;;;;;;28.27;40.14;97599.50;5029129;28;1950;-51
2021/07/19 04:22:01;;;;;;;;;;;;;;;28.16;40.58;97597.81;5027337;28;1345;-50
2021/07/19 04:24:26;;;;;;;;;;;;;;;28.18;40.24;97605.63;5029284;28;1968;-50
2021/07/19 04:26:51;;;;;;;;;;;;;;;28.43;39.82;97602.47;5027275;28;1325;-50
2021/07/19 04:29:19;;;;;;;;;;;;;;;28.33;40.23;97602.47;5029138;28;1390;-51
2021/07/19 04:31:45;;;;;;;;;;;;;;;28.34;40.08;97596.19;5028898;28;1343;-52
2021/07/19 04:34:10;;;;;;;;;;;;;;;28.28;40.19;97599.38;5027757;28;1566;-51
2021/07/19 04:36:35;;;;;;;;;;;;;;;28.21;40.29;97603.56;5029141;28;1325;-51
2021/07/19 04:39:00;;;;;;;;;;;;;;;28.28;40.13;97607.34;5029378;28;1145;-51
2021/07/19 04:41:26;;;;;;;;;;;;;;;28.39;39.88;97613.53;5027512;28;1890;-52
2021/07/19 04:43:51;;;;;;;;;;;;;;;28.31;40.38;97607.09;5028948;28;1436;-51
2021/07/19 04:46:16;;;;;;;;;;;;;;;28.50;39.67;97616.88;5028867;28;1482;-51
2021/07/19 04:48:41;;;;;;;;;;;;;;;28.47;39.70;97606.56;5027503;28;1536;-51
2021/07/19 04:51:06;;;;;;;;;;;;;;;28.39;39.70;97601.09;5010757;28;1650;-52
2021/07/19 04:53:32;;;;;;;;;;;;;;;28.51;39.49;97599.13;5010023;28;1354;-51
2021/07/19 04:55:58;;;;;;;;;;;;;;;28.44;39.92;97600.66;5028877;28;1571;-50
2021/07/19 04:58:23;;;;;;;;;;;;;;;28.51;39.73;97601.78;5012018;28;1145;-51
2021/07/19 05:00:50;;;;;;;;;;;;;;;28.26;40.04;97592.53;5028037;28;1934;-50
2021/07/19 05:03:15;;;;;;;;;;;;;;;28.21;40.45;97594.75;5012063;28;1224;-48
2021/07/19 05:05:41;;;;;;;;;;;;;;;28.17;40.32;97591.53;5026360;28;1856;-49
2021/07/19 05:08:06;;;;;;;;;;;;;;;28.32;40.04;97594.66;5007412;28;1610;-51
2021/07/19 05:10:31;;;;;;;;;;;;;;;28.43;39.89;97589.22;5011125;28;1579;-52
2021/07/19 05:12:56;;;;;;;;;;;;;;;28.29;40.26;97586.97;5010914;28;1385;-50
2021/07/19 05:15:22;;;;;;;;;;;;;;;28.37;39.94;97579.19;5011726;28;1177;-51
2021/07/19 05:17:47;;;;;;;;;;;;;;;28.34;40.24;97587.41;5010703;28;1781;-51
2021/07/19 05:20:13;;;;;;;;;;;;;;;28.17;40.24;97580.09;5011419;28;1950;-51
2021/07/19 05:22:38;;;;;;;;;;;;;;;28.32;39.86;97586.72;5028918;28;1043;-49
2021/07/19 05:25:04;;;;;;;;;;;;;;;28.33;39.93;97580.41;5027740;28;2116;-51
2021/07/19 05:27:29;;;;;;;;;;;;;;;28.34;40.02;97582.09;5028242;28;1326;-50
2021/07/19 05:29:54;;;;;;;;;;;;;;;28.31;39.97;97579.72;5029581;28;1272;-49
2021/07/19 05:32:22;;;;;;;;;;;;;;;28.33;40.11;97583.06;5026884;28;1508;-51
2021/07/19 05:34:47;;;;;;;;;;;;;;;28.48;39.64;97587.00;5029066;28;1953;-49
2021/07/19 05:37:12;;;;;;;;;;;;;;;28.37;40.10;97579.19;5028918;28;1487;-49
2021/07/19 05:39:37;;;;;;;;;;;;;;;28.27;40.12;97579.13;5029147;28;1898;-51
2021/07/19 05:42:02;;;;;;;;;;;;;;;28.31;40.19;97577.06;5028832;28;1293;-51
2021/07/19 05:44:28;;;;;;;;;;;;;;;28.28;40.01;97579.94;5028010;28;1211;-50
2021/07/19 05:46:53;;;;;;;;;;;;;;;28.44;39.66;97580.31;5027468;28;1575;-51
2021/07/19 05:49:18;;;;;;;;;;;;;;;28.25;40.29;97585.53;5028800;28;959;-51
2021/07/19 05:51:44;;;;;;;;;;;;;;;28.29;40.13;97576.34;5026410;28;1639;-51
2021/07/19 05:54:09;;;;;;;;;;;;;;;28.16;40.37;97581.06;5029460;28;1153;-51
2021/07/19 05:56:34;;;;;;;;;;;;;;;28.32;39.85;97578.75;5027508;28;1584;-51
2021/07/19 05:59:00;;;;;;;;;;;;;;;28.27;40.27;97573.81;5032478;28;1555;-50
2021/07/19 06:03:59;;;;;;;;;;;;;;;28.16;40.52;97576.59;5036605;23;1588;-52
2021/07/19 06:06:25;;;;;;;;;;;;;;;28.33;40.24;97578.59;5029933;28;1682;-51
2021/07/19 06:08:50;;;;;;;;;;;;;;;28.27;40.46;97572.97;5032651;28;1081;-51
2021/07/19 06:11:15;;;;;;;;;;;;;;;28.26;40.36;97568.66;5031807;28;1632;-51
2021/07/19 06:13:41;;;;;;;;;;;;;;;28.28;40.22;97579.94;5015268;28;1285;-50
2021/07/19 06:16:06;;;;;;;;;;;;;;;28.38;39.88;97577.38;5012518;28;1450;-50
2021/07/19 06:18:31;;;;;;;;;;;;;;;28.34;39.97;97574.13;4993094;28;1555;-50
2021/07/19 06:20:56;;;;;;;;;;;;;;;28.42;39.88;97582.25;5011507;28;1962;-51
2021/07/19 06:23:21;;;;;;;;;;;;;;;28.34;40.12;97574.13;5012400;28;1406;-51
2021/07/19 06:25:49;;;;;;;;;;;;;;;28.48;39.84;97586.16;5009790;28;1535;-50
2021/07/19 06:28:14;;;;;;;;;;;;;;;28.22;40.28;97581.38;4995339;28;1366;-52
2021/07/19 06:30:39;;;;;;;;;;;;;;;28.28;40.22;97577.31;5011238;28;1295;-51
2021/07/19 06:33:04;;;;;;;;;;;;;;;28.48;39.71;97580.84;5011115;28;1567;-51
2021/07/19 06:35:30;;;;;;;;;;;;;;;28.24;40.26;97576.75;5011358;28;1522;-50
2021/07/19 06:37:55;;;;;;;;;;;;;;;28.33;39.99;97581.25;5011756;28;1544;-51
2021/07/19 06:40:20;;;;;;;;;;;;;;;28.33;40.03;97575.94;5010514;28;1906;-51
2021/07/19 06:42:46;;;;;;;;;;;;;;;28.44;39.93;97585.63;5010819;28;1399;-52
2021/07/19 06:45:11;;;;;;;;;;;;;;;28.36;40.09;97582.81;5011656;28;1339;-51
2021/07/19 06:47:36;;;;;;;;;;;;;;;28.45;39.68;97586.44;5009924;28;1632;-50
2021/07/19 06:50:02;;;;;;;;;;;;;;;28.42;39.89;97589.38;5009863;28;1272;-51
2021/07/19 06:52:27;;;;;;;;;;;;;;;28.47;39.72;97582.69;5011986;28;1409;-50
2021/07/19 06:54:53;;;;;;;;;;;;;;;28.20;40.17;97583.31;5007768;28;1522;-50
2021/07/19 06:57:18;;;;;;;;;;;;;;;28.41;39.83;97585.03;4993972;28;1206;-50
2021/07/19 06:59:43;;;;;;;;;;;;;;;28.46;39.77;97585.47;5008238;28;1906;-50
2021/07/19 07:02:09;;;;;;;;;;;;;;;28.28;40.28;97579.94;5009279;28;1440;-50
2021/07/19 07:04:34;;;;;;;;;;;;;;;28.30;39.98;97570.94;5011056;28;1248;-51
2021/07/19 07:06:59;;;;;;;;;;;;;;;28.42;40.02;97578.75;5005749;28;1618;-51
2021/07/19 07:09:24;;;;;;;;;;;;;;;28.33;40.02;97570.66;5009653;28;1582;-50
2021/07/19 07:11:49;;;;;;;;;;;;;;;28.38;39.75;97577.38;5010370;28;1375;-51
2021/07/19 07:14:15;;;;;;;;;;;;;;;28.30;40.10;97578.91;5011774;28;1158;-50
2021/07/19 07:16:40;;;;;;;;;;;;;;;28.32;39.74;97578.75;5010475;28;1348;-49
2021/07/19 07:19:05;;;;;;;;;;;;;;;28.36;40.05;97582.81;5009585;28;1615;-49
2021/07/19 07:21:31;;;;;;;;;;;;;;;28.53;39.55;97583.94;5008062;28;1910;-50
2021/07/19 07:23:56;;;;;;;;;;;;;;;28.29;39.95;97577.22;5008515;28;1422;-49
2021/07/19 07:26:21;;;;;;;;;;;;;;;28.26;40.38;97579.25;5005247;28;1620;-51
2021/07/19 07:28:47;;;;;;;;;;;;;;;28.60;39.53;97582.41;5010175;28;1138;-50
2021/07/19 07:31:12;;;;;;;;;;;;;;;28.34;40.07;97579.44;5009263;28;1358;-50
2021/07/19 07:33:37;;;;;;;;;;;;;;;28.41;39.89;97577.91;5009777;28;1650;-50
2021/07/19 07:36:03;;;;;;;;;;;;;;;28.38;40.04;97574.72;5009475;28;1458;-51
2021/07/19 07:38:28;;;;;;;;;;;;;;;28.35;39.84;97571.34;5009225;28;1306;-51
2021/07/19 07:40:53;;;;;;;;;;;;;;;28.36;40.07;97570.41;5007925;28;1966;-50
2021/07/19 07:43:19;;;;;;;;;;;;;;;28.34;39.96;97558.22;5009754;28;1510;-51
2021/07/19 07:45:44;;;;;;;;;;;;;;;28.39;39.69;97566.63;5009784;28;1437;-48
2021/07/19 07:48:09;;;;;;;;;;;;;;;28.42;39.76;97560.19;5007909;28;1592;-51
2021/07/19 07:50:34;;;;;;;;;;;;;;;28.47;39.62;97565.91;5010706;28;1193;-51
2021/07/19 07:52:59;;;;;;;;;;;;;;;28.41;39.56;97559.34;5006008;28;1682;-51
2021/07/19 07:55:25;;;;;;;;;;;;;;;28.42;40.00;97558.38;5009230;28;1642;-50
2021/07/19 07:57:50;;;;;;;;;;;;;;;28.37;39.77;97555.31;5009712;28;1185;-51
2021/07/19 08:00:16;;;;;;;;;;;;;;;28.40;39.82;97557.69;5008547;28;1910;-50
2021/07/19 08:02:41;;;;;;;;;;;;;;;28.32;39.96;97545.09;5010516;28;1300;-50
2021/07/19 08:05:07;;;;;;;;;;;;;;;28.33;39.93;97545.94;5006014;28;1586;-51
2021/07/19 08:07:32;;;;;;;;;;;;;;;28.29;39.86;97548.06;5010092;28;1300;-49
2021/07/19 08:09:59;;;;;;;;;;;;;;;28.53;39.70;97547.63;5006324;28;1615;-51
2021/07/19 08:12:24;;;;;;;;;;;;;;;28.50;39.78;97547.91;5007205;28;1574;-51
2021/07/19 08:14:50;;;;;;;;;;;;;;;28.42;39.63;97542.44;5010363;28;1004;-51
2021/07/19 08:17:15;;;;;;;;;;;;;;;28.41;40.12;97546.09;5010124;28;1178;-51
2021/07/19 08:19:40;;;;;;;;;;;;;;;28.41;39.87;97547.91;5009767;28;1910;-49
2021/07/19 08:22:11;;;;;;;;;;;;;;;28.56;39.44;97542.03;5008129;28;1574;-51
2021/07/19 08:24:36;;;;;;;;;;;;;;;28.41;39.79;97554.03;5009066;28;1496;-51
2021/07/19 08:27:03;;;;;;;;;;;;;;;28.48;39.78;97539.25;5008887;28;1450;-50
2021/07/19 08:29:28;;;;;;;;;;;;;;;28.39;39.81;97544.56;5009586;28;1170;-51
2021/07/19 08:31:54;;;;;;;;;;;;;;;28.44;39.82;97532.56;5007385;28;1530;-52
2021/07/19 08:34:19;;;;;;;;;;;;;;;28.36;39.98;97532.41;5008963;28;1075;-50
2021/07/19 08:36:45;;;;;;;;;;;;;;;28.48;39.83;97530.47;5009576;28;1107;-52
2021/07/19 08:39:10;;;;;;;;;;;;;;;28.47;39.43;97528.78;5010671;28;1221;-50
2021/07/19 08:41:35;;;;;;;;;;;;;;;28.37;39.65;97528.78;5009094;28;1903;-50
2021/07/19 08:44:05;;;;;;;;;;;;;;;28.54;39.50;97528.09;5008595;28;1220;-51
2021/07/19 08:46:30;;;;;;;;;;;;;;;28.53;39.42;97520.28;4999721;28;1000;-51
2021/07/19 08:48:55;;;;;;;;;;;;;;;28.43;39.76;97528.22;5008024;28;1567;-51
2021/07/19 08:51:20;;;;;;;;;;;;;;;28.37;39.62;97528.78;5009158;28;1469;-49
2021/07/19 08:53:45;;;;;;;;;;;;;;;28.45;39.67;97530.75;5008091;28;1665;-49
2021/07/19 08:56:11;;;;;;;;;;;;;;;28.40;39.69;97535.63;4991058;28;1529;-49
2021/07/19 08:58:36;;;;;;;;;;;;;;;28.56;39.47;97526.13;4992229;28;1441;-49
2021/07/19 09:01:02;;;;;;;;;;;;;;;28.46;39.71;97527.94;5008522;28;1914;-51
2021/07/19 09:03:27;;;;;;;;;;;;;;;28.54;39.43;97532.56;5009038;28;1596;-52
2021/07/19 09:05:53;;;;;;;;;;;;;;;28.33;39.87;97530.88;5007025;28;1466;-50
2021/07/19 09:08:18;;;;;;;;;;;;;;;28.50;39.51;97534.63;5010037;28;1134;-51
2021/07/19 09:10:43;;;;;;;;;;;;;;;28.52;39.53;97529.22;4990080;28;1704;-51
2021/07/19 09:13:14;;;;;;;;;;;;;;;28.49;39.54;97532.97;5008627;28;1387;-51
2021/07/19 09:15:39;;;;;;;;;;;;;;;28.44;39.59;97526.38;5009316;28;1205;-50
2021/07/19 09:18:05;;;;;;;;;;;;;;;28.70;39.35;97532.00;5008166;28;1327;-51
2021/07/19 09:20:33;;;;;;;;;;;;;;;28.61;39.31;97529.19;5008607;28;1903;-51
2021/07/19 09:22:59;;;;;;;;;;;;;;;28.59;39.32;97519.69;5007663;28;1350;-51
2021/07/19 09:25:24;;;;;;;;;;;;;;;28.50;39.64;97525.84;5008287;28;1562;-50
2021/07/19 09:28:02;;;;;;;;;;;;;;;28.42;39.92;97523.88;5008031;28;1490;-49
2021/07/19 09:30:27;;;;;;;;;;;;;;;28.44;39.50;97521.94;5008644;28;1114;-50
2021/07/19 09:32:55;;;;;;;;;;;;;;;28.36;39.82;97516.50;5011811;28;1372;-50
2021/07/19 09:35:20;;;;;;;;;;;;;;;28.35;39.82;97514.81;5010734;28;1634;-51
2021/07/19 09:37:45;;;;;;;;;;;;;;;28.57;39.28;97521.66;5013091;28;1186;-51
2021/07/19 09:40:11;;;;;;;;;;;;;;;28.85;38.79;97512.81;4948731;28;1931;-51
2021/07/19 09:42:42;;;;;;;;;;;;;;;28.70;39.25;97508.94;5011001;28;1370;-50
2021/07/19 09:45:08;;;;;;;;;;;;;;;28.56;39.17;97502.25;5011149;28;1115;-49
2021/07/19 09:47:33;;;;;;;;;;;;;;;28.68;39.14;97515.38;5010692;28;1548;-51
2021/07/19 09:50:07;;;;;;;;;;;;;;;28.44;39.68;97505.16;5013351;28;1161;-50
2021/07/19 09:52:33;;;;;;;;;;;;;;;28.46;39.80;97503.25;4994645;28;1288;-51
2021/07/19 09:54:58;;;;;;;;;;;;;;;28.50;39.58;97504.63;5010747;28;1568;-50
2021/07/19 09:57:23;;;;;;;;;;;;;;;28.39;39.51;97491.50;5013138;28;1123;-50
2021/07/19 09:59:49;;;;;;;;;;;;;;;28.46;39.62;97500.59;5011602;28;1898;-51
2021/07/19 10:02:29;;;;;;;;;;;;;;;28.55;39.41;97503.22;5011124;28;1764;-51
2021/07/19 10:04:54;;;;;;;;;;;;;;;28.42;39.70;97497.34;5011303;28;1406;-51
2021/07/19 10:07:23;;;;;;;;;;;;;;;28.49;39.40;97501.13;5013324;28;1051;-51
2021/07/19 10:09:48;;;;;;;;;;;;;;;28.52;39.49;97498.22;5005757;28;1628;-51
2021/07/19 10:12:14;;;;;;;;;;;;;;;28.40;39.82;97493.19;5011697;28;1307;-51
2021/07/19 10:14:40;;;;;;;;;;;;;;;28.44;39.43;97490.13;5011636;28;1142;-51
2021/07/19 10:17:05;;;;;;;;;;;;;;;28.47;39.79;97491.66;4993982;28;1732;-50
2021/07/19 10:19:32;;;;;;;;;;;;;;;28.50;39.54;97491.34;5009654;28;1883;-50
2021/07/19 10:21:57;;;;;;;;;;;;;;;28.56;39.37;97491.63;5010843;28;1544;-51
2021/07/19 10:24:22;;;;;;;;;;;;;;;28.52;39.51;97495.56;5011273;28;1726;-50
2021/07/19 10:26:48;;;;;;;;;;;;;;;28.58;39.38;97496.78;5009966;28;1622;-51
2021/07/19 10:29:14;;;;;;;;;;;;;;;28.64;39.18;97490.91;5009233;28;1523;-50
2021/07/19 10:31:39;;;;;;;;;;;;;;;28.52;39.42;97487.59;5011937;28;1299;-50
2021/07/19 10:34:04;;;;;;;;;;;;;;;28.53;39.69;97485.78;5011466;28;1245;-51
2021/07/19 10:36:30;;;;;;;;;;;;;;;28.48;39.50;97482.69;5011623;28;1162;-50
2021/07/19 10:39:00;;;;;;;;;;;;;;;28.50;39.47;97481.56;4991859;28;1569;-50
2021/07/19 10:41:26;;;;;;;;;;;;;;;28.36;39.70;97479.38;4993431;28;1902;-51
2021/07/19 10:43:57;;;;;;;;;;;;;;;28.41;39.80;97482.41;5006537;28;1693;-51
2021/07/19 10:46:24;;;;;;;;;;;;;;;28.45;39.57;97480.34;5009625;28;1721;-50
2021/07/19 10:48:49;;;;;;;;;;;;;;;28.48;39.55;97480.88;5011235;28;1213;-50
2021/07/19 10:51:18;;;;;;;;;;;;;;;28.45;39.54;97478.53;5010614;28;1161;-51
2021/07/19 10:53:43;;;;;;;;;;;;;;;28.42;39.88;97468.19;5008076;28;1575;-51
2021/07/19 10:56:10;;;;;;;;;;;;;;;28.48;39.38;97470.28;5010233;28;1587;-51
2021/07/19 10:58:36;;;;;;;;;;;;;;;28.56;39.42;97466.91;5006943;28;1792;-50
2021/07/19 11:01:01;;;;;;;;;;;;;;;28.56;39.25;97474.88;5010676;28;1914;-51
2021/07/19 11:03:35;;;;;;;;;;;;;;;28.31;40.06;97471.00;5009332;28;1561;-51
2021/07/19 11:06:00;;;;;;;;;;;;;;;28.53;39.43;97464.56;5010100;28;1323;-51
2021/07/19 11:08:25;;;;;;;;;;;;;;;28.47;39.40;97455.34;5011328;28;1484;-51
2021/07/19 11:10:51;;;;;;;;;;;;;;;28.47;39.46;97467.78;5007637;28;1574;-51
2021/07/19 11:13:27;;;;;;;;;;;;;;;28.54;39.63;97469.72;5009816;28;1406;-51
2021/07/19 11:15:52;;;;;;;;;;;;;;;28.55;39.18;97458.13;5009819;28;1011;-51
2021/07/19 11:18:18;;;;;;;;;;;;;;;28.37;39.67;97451.88;5007633;28;1689;-50
2021/07/19 11:20:44;;;;;;;;;;;;;;;28.38;39.66;97458.00;5011186;28;1910;-51
2021/07/19 11:23:09;;;;;;;;;;;;;;;28.44;39.69;97455.63;5009462;28;1371;-51
2021/07/19 11:25:42;;;;;;;;;;;;;;;28.38;39.76;97453.53;4993035;28;1617;-48
2021/07/19 11:28:14;;;;;;;;;;;;;;;28.47;39.64;97441.25;5010290;28;1406;-48
2021/07/19 11:30:39;;;;;;;;;;;;;;;28.52;39.62;97439.84;5011374;28;1226;-51
2021/07/19 11:33:09;;;;;;;;;;;;;;;28.36;40.04;97439.59;4991215;28;1620;-51
2021/07/19 11:35:37;;;;;;;;;;;;;;;28.55;39.45;97441.38;5011339;28;1214;-49
2021/07/19 11:38:06;;;;;;;;;;;;;;;28.48;39.71;97432.31;5010237;28;1150;-50
2021/07/19 11:40:37;;;;;;;;;;;;;;;28.47;39.74;97433.28;4991961;28;2005;-49
2021/07/19 11:43:11;;;;;;;;;;;;;;;28.54;39.23;97429.91;5010271;28;1498;-50
2021/07/19 11:45:37;;;;;;;;;;;;;;;28.40;39.83;97429.53;5009872;28;1119;-51
2021/07/19 11:48:04;;;;;;;;;;;;;;;28.59;39.39;97430.31;5009810;28;1567;-51
2021/07/19 11:50:29;;;;;;;;;;;;;;;28.61;39.20;97427.53;5006000;28;1564;-51
2021/07/19 11:52:54;;;;;;;;;;;;;;;28.49;39.50;97426.84;5010834;28;1406;-51
2021/07/19 11:55:21;;;;;;;;;;;;;;;28.50;39.70;97425.88;5008892;28;1561;-50
2021/07/19 11:57:47;;;;;;;;;;;;;;;28.62;39.06;97414.13;5008871;28;1818;-48
2021/07/19 12:00:13;;;;;;;;;;;;;;;28.50;39.51;97411.75;5010561;28;1914;-50
2021/07/19 12:02:38;;;;;;;;;;;;;;;28.46;39.68;97413.03;5007475;28;1646;-52
2021/07/19 12:07:31;;;;;;;;;;;;;;;28.53;39.31;97407.03;5036176;28;1838;-50
2021/07/19 12:10:00;;;;;;;;;;;;;;;28.63;39.25;97409.66;5037387;28;1609;-52
2021/07/19 12:12:25;;;;;;;;;;;;;;;28.49;39.32;97404.78;5038427;28;1306;-51
2021/07/19 12:14:57;;;;;;;;;;;;;;;28.50;39.50;97404.63;5012285;28;1473;-52
2021/07/19 12:17:26;;;;;;;;;;;;;;;28.43;39.68;97392.94;5020057;28;1169;-50
2021/07/19 12:19:52;;;;;;;;;;;;;;;28.46;39.68;97386.53;5000087;28;1948;-50
2021/07/19 12:22:17;;;;;;;;;;;;;;;28.57;39.40;97383.69;5019261;28;1323;-51
2021/07/19 12:24:43;;;;;;;;;;;;;;;28.28;39.92;97386.34;5017904;28;1655;-51
2021/07/19 12:27:09;;;;;;;;;;;;;;;28.54;39.36;97383.97;5020384;28;1185;-51
2021/07/19 12:29:34;;;;;;;;;;;;;;;28.37;39.97;97380.25;5020328;28;1118;-49
2021/07/19 12:32:00;;;;;;;;;;;;;;;28.51;39.42;97376.28;5019612;28;1437;-50
2021/07/19 12:34:26;;;;;;;;;;;;;;;28.58;39.23;97372.09;5018702;28;2148;-51
2021/07/19 12:36:52;;;;;;;;;;;;;;;28.41;39.65;97367.53;5018631;28;1386;-51
2021/07/19 12:39:19;;;;;;;;;;;;;;;28.40;39.61;97360.56;5018316;28;1634;-51
2021/07/19 12:41:46;;;;;;;;;;;;;;;28.47;39.56;97359.00;5017708;28;1906;-49
2021/07/19 12:44:11;;;;;;;;;;;;;;;28.51;39.27;97353.25;5019244;28;1409;-50
2021/07/19 12:46:40;;;;;;;;;;;;;;;28.46;39.66;97360.00;5003159;28;1249;-51
2021/07/19 12:49:05;;;;;;;;;;;;;;;28.46;39.54;97355.53;5016707;28;1532;-50
2021/07/19 12:51:31;;;;;;;;;;;;;;;28.39;39.88;97354.41;5002303;28;1324;-51
2021/07/19 12:53:56;;;;;;;;;;;;;;;28.56;39.58;97358.13;5019411;28;1307;-52
2021/07/19 12:56:22;;;;;;;;;;;;;;;28.52;39.59;97348.81;5016377;28;1599;-50
2021/07/19 12:59:07;;;;;;;;;;;;;;;28.47;39.84;97354.53;5021770;28;1101;-49